Locustville, VA (23404)

05:33 AM EDT am 24. Oktober 2014 (GMT -0400)
The Frog and PenguINN | Change Station
CLOSE
Current Station
Persönliche Wetterstationen
Location: Onley, VA
Höhe: 35 ft
Wetterstationen in der Umgebung

Höhe 35 ft 37.69 °N, 75.72 °W | Updated 3 minutes ago

Heiter
Heiter
55.1 °F
gefühlte 55.1 °F
N
0.0
Wind Wechselnd Wind aus Südost
Gusts 0.0 mph

Heute
Max. -- | schwach -- °F
--% Regenrisiko
Gestern
Max. -- | schwach -- °F
Precip. -- inch
7:19 AM 6:13 PM
Neumond, 0% visible
Druck 29.89 inch
Sichtweite 10.0 Meilen
Wolken Heiter
Taupunkt 47 °F
Feuchtigkeit 75%
Regen 0.00 inch
Schneehöhe Nicht verfügbar..
UV 0 von 12
Pollen 2.10 von 12
Luftqualität Nicht verfügbar..
Flu Activity Local Activity
METAR KMFV 240915Z AUTO 31011G19KT 10SM CLR 14/06 A2989 RMK AO2

More Conditions Fewer Conditions

Druck 29.89 inch
Sichtweite 10.0 Meilen
Wolken Heiter
Taupunkt 47 °F
Feuchtigkeit 75%
Regen 0.00 inch
Schneehöhe Nicht verfügbar..
UV 0 von 12
Pollen 2.10 von 12
Luftqualität Nicht verfügbar..
Flu Activity Local Activity
METAR KMFV 240915Z AUTO 31011G19KT 10SM CLR 14/06 A2989 RMK AO2

More Conditions Fewer Conditions

10-Day Weather Forecast

Almanac

Astronomie

Oct. 24, 2014 Aufgang Untergang
Genaue Zeit 07:19 EDT 18:13 EDT
Bürgerliche Dämmerung 06:52 EDT 18:40 EDT
Nautische Dämmerung 06:22 EDT 19:10 EDT
Astronomische Dämmerung 05:51 EDT 19:41 EDT
Mond 07:55 EDT 18:52 EDT
Länge des sichtbaren Lichts 11h 47m
Tageslänge
10h 53m
Tomorrow will be 2m 14s shorter.
Neumond, 0% of the Moon is Illuminated
Heute
Neumond
Okt 30
Erstes Viertel
Nov 6
Vollmond
Nov 14
Letztes Viertel
Nov 22
Neu

Heutige Rekorde

State Highs State Lows

Community

WunderPhotos

Upload Photos

1,764,513 Fotos hochgeladen!

WunderBlogs® & News

Nearby

Schneehöhe

Station Depth Höhe
Kein Neuschnee gemeldet.

Erdbebenaktivität

Stadt Distance Mag. Time & Date
No recent earthquake activity has been reported nearby.
Minimum magnitude displayed is 2.5.

küstennahe Wassertemperaturen

Ort Temperatur
Wachapreague, VA 59.0 °F
Ocean City Inlet, MD 60.1 °F
Kiptopeke, VA 64.9 °F
Bishops Head, MD 55.9 °F
Chesapeake Bay Bridge Tunnel, VA 64.9 °F
Cambridge, MD 60.1 °F

Wetterstationen in der Umgebung